createdAt,value
2019-01-19T00:02:35.210Z,54.20
2019-01-19T00:05:59.398Z,54.30
2019-01-19T00:09:01.653Z,54.40
2019-01-19T00:12:27.718Z,54.60
2019-01-19T00:15:59.135Z,54.70
2019-01-19T00:19:52.620Z,54.80
2019-01-19T00:23:45.054Z,54.80
2019-01-19T00:26:51.689Z,54.90
2019-01-19T00:30:08.622Z,55.00
2019-01-19T00:33:19.358Z,54.60
2019-01-19T00:36:44.786Z,54.90
2019-01-19T00:40:18.589Z,54.90
2019-01-19T00:43:09.991Z,55.00
2019-01-19T00:46:34.681Z,55.00
2019-01-19T00:49:40.157Z,55.00
2019-01-19T00:52:52.079Z,55.00
2019-01-19T00:56:09.339Z,55.10
2019-01-19T00:59:02.823Z,55.10
2019-01-19T01:02:45.130Z,55.20
2019-01-19T01:05:32.104Z,55.20
2019-01-19T01:09:12.140Z,55.20
2019-01-19T01:12:40.642Z,55.10
2019-01-19T01:15:59.722Z,55.10
2019-01-19T01:19:20.376Z,55.10
2019-01-19T01:23:01.673Z,55.00
2019-01-19T01:26:11.231Z,55.10
2019-01-19T01:29:36.111Z,55.10
2019-01-19T01:33:01.039Z,55.20
2019-01-19T01:36:19.313Z,55.30
2019-01-19T01:39:25.847Z,55.20
2019-01-19T01:42:25.283Z,55.80
2019-01-19T01:45:31.987Z,55.80
2019-01-19T01:48:58.626Z,55.30
2019-01-19T01:52:15.549Z,55.30
2019-01-19T01:55:04.655Z,55.20
2019-01-19T01:58:06.557Z,55.30
2019-01-19T02:01:22.879Z,55.30
2019-01-19T02:05:16.315Z,55.30
2019-01-19T02:08:43.563Z,55.30
2019-01-19T02:12:00.033Z,55.20
2019-01-19T02:15:17.645Z,55.30
2019-01-19T02:18:54.023Z,55.20
2019-01-19T02:22:31.812Z,55.30
2019-01-19T02:26:05.095Z,55.10
2019-01-19T02:29:21.488Z,55.20
2019-01-19T02:33:16.319Z,55.80
2019-01-19T02:36:59.085Z,55.40
2019-01-19T02:40:44.333Z,55.10
2019-01-19T02:43:42.259Z,55.10
2019-01-19T02:47:12.641Z,55.00
2019-01-19T02:50:22.261Z,55.50
2019-01-19T02:53:34.377Z,55.10
2019-01-19T02:56:47.843Z,55.20
2019-01-19T02:59:34.886Z,55.20
2019-01-19T03:02:46.628Z,55.20
2019-01-19T03:06:04.842Z,55.20
2019-01-19T03:09:14.854Z,55.40
2019-01-19T03:12:55.576Z,55.00
2019-01-19T03:16:19.013Z,55.50
2019-01-19T03:19:26.268Z,55.40
2019-01-19T03:22:59.819Z,55.50
2019-01-19T03:26:06.436Z,55.60
2019-01-19T03:29:25.118Z,55.50
2019-01-19T03:32:55.890Z,56.20
2019-01-19T03:36:23.436Z,55.60
2019-01-19T03:39:46.143Z,55.60
2019-01-19T03:42:58.427Z,55.60
2019-01-19T03:46:15.092Z,55.70
2019-01-19T03:49:29.973Z,55.70
2019-01-19T03:52:47.532Z,55.80
2019-01-19T03:56:28.803Z,55.80
2019-01-19T04:00:09.433Z,55.90
2019-01-19T04:03:52.322Z,55.90
2019-01-19T04:06:43.628Z,54.80
2019-01-19T04:10:02.482Z,55.80
2019-01-19T04:13:24.675Z,55.90
2019-01-19T04:17:17.905Z,56.00
2019-01-19T04:20:21.847Z,56.00
2019-01-19T04:23:06.686Z,56.00
2019-01-19T04:26:06.128Z,56.00
2019-01-19T04:28:38.245Z,56.00
2019-01-19T04:31:10.202Z,56.10
2019-01-19T04:33:42.061Z,56.10
2019-01-19T04:36:21.497Z,56.20
2019-01-19T04:38:48.006Z,56.30
2019-01-19T04:41:19.854Z,56.20
2019-01-19T04:43:51.832Z,56.30
2019-01-19T04:46:23.646Z,56.30
2019-01-19T04:48:55.667Z,56.20
2019-01-19T04:51:27.501Z,56.20
2019-01-19T04:53:59.381Z,56.30
2019-01-19T04:56:31.176Z,56.30
2019-01-19T04:59:03.014Z,56.20
2019-01-19T05:01:35.044Z,56.30
2019-01-19T05:04:07.161Z,55.80
2019-01-19T05:06:39.024Z,56.30
2019-01-19T05:09:11.225Z,56.40
2019-01-19T05:11:43.096Z,56.30
2019-01-19T05:14:14.959Z,56.30
2019-01-19T05:16:46.951Z,56.30
2019-01-19T05:19:18.760Z,56.20
2019-01-19T05:21:50.579Z,56.10
2019-01-19T05:24:22.427Z,56.10
2019-01-19T05:26:54.382Z,56.10
2019-01-19T05:29:26.224Z,56.00
2019-01-19T05:31:57.986Z,56.10
2019-01-19T05:34:29.932Z,56.10
2019-01-19T05:37:01.697Z,56.30
2019-01-19T05:39:33.540Z,56.20
2019-01-19T05:42:05.342Z,56.30
2019-01-19T05:44:37.154Z,56.20
2019-01-19T05:47:08.972Z,56.10
2019-01-19T05:49:40.953Z,56.10
2019-01-19T05:52:12.952Z,56.20
2019-01-19T05:54:44.816Z,56.00
2019-01-19T05:57:16.617Z,56.70
2019-01-19T05:59:48.447Z,56.20
2019-01-19T06:02:21.864Z,56.20
2019-01-19T06:04:53.818Z,56.20
2019-01-19T06:07:25.644Z,56.20
2019-01-19T06:09:57.518Z,56.10
2019-01-19T06:12:29.290Z,56.10
2019-01-19T06:15:01.227Z,56.10
2019-01-19T06:17:33.235Z,56.00
2019-01-19T06:20:06.324Z,56.10
2019-01-19T06:22:38.228Z,56.00
2019-01-19T06:25:11.361Z,56.00
2019-01-19T06:27:43.706Z,55.90
2019-01-19T06:30:21.869Z,55.90
2019-01-19T06:32:53.990Z,55.80
2019-01-19T06:35:25.979Z,55.80
2019-01-19T06:37:57.882Z,55.70
2019-01-19T06:40:29.633Z,55.60
2019-01-19T06:43:02.560Z,56.20
2019-01-19T06:45:35.088Z,55.70
2019-01-19T06:48:07.495Z,56.40
2019-01-19T06:50:39.365Z,55.90
2019-01-19T06:53:11.225Z,56.00
2019-01-19T06:55:43.054Z,56.10
2019-01-19T06:58:14.984Z,56.10
2019-01-19T07:00:46.873Z,56.10
2019-01-19T07:03:18.731Z,56.20
2019-01-19T07:05:50.683Z,56.10
2019-01-19T07:08:22.578Z,56.10
2019-01-19T07:10:54.513Z,56.20
2019-01-19T07:13:26.418Z,56.20
2019-01-19T07:15:58.211Z,56.20
2019-01-19T07:18:30.194Z,56.20
2019-01-19T07:21:02.081Z,56.20
2019-01-19T07:23:33.916Z,56.30
2019-01-19T07:26:05.783Z,56.20
2019-01-19T07:28:37.607Z,56.10
2019-01-19T07:31:09.384Z,56.20
2019-01-19T07:33:41.241Z,56.30
2019-01-19T07:36:13.116Z,56.30
2019-01-19T07:38:45.054Z,56.30
2019-01-19T07:41:17.195Z,56.30
2019-01-19T07:43:52.679Z,56.40
2019-01-19T07:46:25.404Z,56.30
2019-01-19T07:48:57.280Z,56.40
2019-01-19T07:51:29.241Z,56.40
2019-01-19T07:54:01.176Z,56.40
2019-01-19T07:56:34.136Z,56.30
2019-01-19T07:59:06.242Z,56.30
2019-01-19T08:01:38.084Z,56.50
2019-01-19T08:04:10.182Z,56.50
2019-01-19T08:07:17.478Z,56.50
2019-01-19T08:10:08.774Z,56.70
2019-01-19T08:12:40.650Z,56.80
2019-01-19T08:15:16.498Z,56.80
2019-01-19T08:17:57.339Z,56.90
2019-01-19T08:20:29.190Z,56.90
2019-01-19T08:23:02.831Z,56.90
2019-01-19T08:25:38.930Z,57.00
2019-01-19T08:28:11.036Z,56.90
2019-01-19T08:30:42.853Z,57.00
2019-01-19T08:33:17.100Z,56.90
2019-01-19T08:35:49.299Z,56.60
2019-01-19T08:38:22.499Z,56.80
2019-01-19T08:40:56.734Z,56.60
2019-01-19T08:43:40.224Z,56.60
2019-01-19T08:46:12.176Z,57.00
2019-01-19T08:48:44.146Z,56.50
2019-01-19T08:51:17.374Z,56.50
2019-01-19T08:53:49.278Z,56.30
2019-01-19T08:56:23.366Z,56.30
2019-01-19T08:58:55.256Z,56.20
2019-01-19T09:01:28.337Z,56.30
2019-01-19T09:04:01.389Z,56.30
2019-01-19T09:06:33.258Z,56.50
2019-01-19T09:09:07.420Z,56.70
2019-01-19T09:11:39.467Z,56.80
2019-01-19T09:14:11.322Z,56.90
2019-01-19T09:16:44.369Z,56.80
2019-01-19T09:19:16.443Z,56.70
2019-01-19T09:21:49.728Z,56.60
2019-01-19T09:24:31.434Z,56.50
2019-01-19T09:27:04.488Z,56.70
2019-01-19T09:29:37.647Z,56.80
2019-01-19T09:32:09.912Z,57.50
2019-01-19T09:34:41.742Z,57.10
2019-01-19T09:37:15.089Z,57.20
2019-01-19T09:39:46.840Z,57.70
2019-01-19T09:42:18.745Z,57.90
2019-01-19T09:44:50.856Z,57.90
2019-01-19T09:47:22.782Z,58.10
2019-01-19T09:49:54.622Z,58.30
2019-01-19T09:52:28.251Z,58.20
2019-01-19T09:55:00.319Z,58.20
2019-01-19T09:57:34.377Z,57.30
2019-01-19T10:00:10.471Z,57.10
2019-01-19T10:02:51.384Z,56.90
2019-01-19T10:05:23.864Z,55.60
2019-01-19T10:07:55.755Z,54.80
2019-01-19T10:10:31.284Z,54.10
2019-01-19T10:13:03.525Z,53.60
2019-01-19T10:15:35.400Z,53.20
2019-01-19T10:18:09.259Z,52.50
2019-01-19T10:20:41.350Z,52.00
2019-01-19T10:23:13.238Z,51.50
2019-01-19T10:25:47.261Z,50.70
2019-01-19T10:28:19.140Z,50.80
2019-01-19T10:30:52.618Z,50.60
2019-01-19T10:33:24.885Z,50.80
2019-01-19T10:35:58.461Z,50.20
2019-01-19T10:38:30.538Z,50.60
2019-01-19T10:41:03.935Z,49.60
2019-01-19T10:43:35.814Z,49.30
2019-01-19T10:46:07.727Z,48.90
2019-01-19T10:48:39.795Z,48.30
2019-01-19T10:51:12.041Z,46.70
2019-01-19T10:53:43.988Z,39.40
2019-01-19T10:56:15.987Z,42.60
2019-01-19T10:58:48.319Z,43.00
2019-01-19T11:01:20.312Z,43.10
2019-01-19T11:03:53.705Z,43.90
2019-01-19T11:06:25.570Z,44.00
2019-01-19T11:08:57.595Z,44.20
2019-01-19T11:11:29.513Z,42.70
2019-01-19T11:14:01.438Z,41.50
2019-01-19T11:16:33.295Z,42.50
2019-01-19T11:19:05.263Z,42.00
2019-01-19T11:21:37.323Z,42.50
2019-01-19T11:24:09.499Z,40.10
2019-01-19T11:26:41.574Z,42.30
2019-01-19T11:29:13.446Z,41.60
2019-01-19T11:31:45.504Z,40.90
2019-01-19T11:34:17.502Z,39.60
2019-01-19T11:36:49.695Z,40.00
2019-01-19T11:39:21.906Z,40.70
2019-01-19T11:41:53.928Z,38.80
2019-01-19T11:44:25.960Z,37.80
2019-01-19T11:46:58.116Z,37.60
2019-01-19T11:49:30.003Z,38.20
2019-01-19T11:52:01.938Z,38.30
2019-01-19T11:54:34.182Z,37.10
2019-01-19T11:57:17.420Z,36.10
2019-01-19T11:59:51.197Z,36.30
2019-01-19T12:02:23.046Z,36.30
2019-01-19T12:04:55.138Z,36.20
2019-01-19T12:07:27.203Z,35.50
2019-01-19T12:09:59.116Z,34.30
2019-01-19T12:12:31.328Z,33.30
2019-01-19T12:15:03.335Z,33.00
2019-01-19T12:17:35.480Z,33.60
2019-01-19T12:20:12.502Z,33.70
2019-01-19T12:22:44.515Z,33.20
2019-01-19T12:25:18.465Z,34.20
2019-01-19T12:27:50.424Z,33.70
2019-01-19T12:30:25.386Z,34.10
2019-01-19T12:32:57.297Z,33.90
2019-01-19T12:35:29.628Z,33.90
2019-01-19T12:38:01.800Z,33.60
2019-01-19T12:40:33.711Z,34.10
2019-01-19T12:43:18.621Z,33.40
2019-01-19T12:46:09.276Z,33.60
2019-01-19T12:48:41.220Z,34.00
2019-01-19T12:51:14.863Z,33.30
2019-01-19T12:53:46.860Z,33.70
2019-01-19T12:56:18.737Z,33.20
2019-01-19T12:58:50.908Z,33.30
2019-01-19T13:01:23.047Z,33.10
2019-01-19T13:03:55.143Z,33.80
2019-01-19T13:07:02.230Z,34.30
2019-01-19T13:09:56.634Z,34.40
2019-01-19T13:12:52.995Z,35.20
2019-01-19T13:16:15.789Z,34.80
2019-01-19T13:19:23.507Z,34.90
2019-01-19T13:23:17.044Z,34.80
2019-01-19T13:26:36.051Z,34.90
2019-01-19T13:30:02.753Z,34.50
2019-01-19T13:32:59.788Z,34.50
2019-01-19T13:36:32.693Z,33.70
2019-01-19T13:39:56.962Z,33.40
2019-01-19T13:43:26.118Z,33.30
2019-01-19T13:46:58.701Z,33.40
2019-01-19T13:50:26.438Z,33.30
2019-01-19T13:54:13.907Z,33.10
2019-01-19T13:57:29.382Z,32.60
2019-01-19T14:01:06.690Z,32.90
2019-01-19T14:04:36.798Z,32.70
2019-01-19T14:08:19.296Z,33.30
2019-01-19T14:11:44.392Z,33.00
2019-01-19T14:14:37.827Z,32.90
2019-01-19T14:17:56.732Z,31.60
2019-01-19T14:21:15.380Z,31.40
2019-01-19T14:24:09.633Z,31.40
2019-01-19T14:27:07.159Z,31.90
2019-01-19T14:30:32.270Z,32.40
2019-01-19T14:34:11.323Z,32.40
2019-01-19T14:37:39.326Z,32.40
2019-01-19T14:40:40.541Z,32.70
2019-01-19T14:44:18.582Z,32.10
2019-01-19T14:47:57.070Z,31.90
2019-01-19T14:51:34.172Z,31.00
2019-01-19T14:55:00.640Z,30.20
2019-01-19T14:58:07.109Z,31.00
2019-01-19T15:01:09.204Z,30.10
2019-01-19T15:04:32.440Z,31.10
2019-01-19T15:08:13.609Z,30.50
2019-01-19T15:11:52.748Z,31.20
2019-01-19T15:15:03.567Z,31.30
2019-01-19T15:18:04.472Z,31.40
2019-01-19T15:21:32.038Z,32.20
2019-01-19T15:24:42.439Z,31.30
2019-01-19T15:28:00.960Z,31.30
2019-01-19T15:31:31.970Z,31.60
2019-01-19T15:35:08.261Z,31.60
2019-01-19T15:38:32.639Z,31.70
2019-01-19T15:41:50.531Z,32.80
2019-01-19T15:45:06.079Z,32.90
2019-01-19T15:48:45.547Z,32.90
2019-01-19T15:51:56.935Z,33.10
2019-01-19T15:55:31.716Z,33.20
2019-01-19T15:58:58.941Z,33.20
2019-01-19T16:02:20.559Z,33.30
2019-01-19T16:05:59.565Z,33.50
2019-01-19T16:09:36.080Z,33.50
2019-01-19T16:13:20.229Z,33.70
2019-01-19T16:16:52.196Z,33.90
2019-01-19T16:20:32.184Z,33.90
2019-01-19T16:24:17.122Z,34.10
2019-01-19T16:27:40.404Z,34.40
2019-01-19T16:31:03.548Z,34.20
2019-01-19T16:34:37.210Z,34.30
2019-01-19T16:37:53.454Z,34.40
2019-01-19T16:41:52.994Z,34.50
2019-01-19T16:45:23.233Z,34.60
2019-01-19T16:48:45.783Z,34.60
2019-01-19T16:52:24.209Z,34.70
2019-01-19T16:55:45.549Z,34.80
2019-01-19T16:59:42.211Z,34.90
2019-01-19T17:03:02.611Z,34.90
2019-01-19T17:06:37.599Z,35.00
2019-01-19T17:10:05.711Z,34.80
2019-01-19T17:13:25.544Z,35.20
2019-01-19T17:16:34.036Z,35.20
2019-01-19T17:20:13.456Z,35.30
2019-01-19T17:23:09.790Z,35.40
2019-01-19T17:26:38.979Z,35.50
2019-01-19T17:29:35.632Z,35.60
2019-01-19T17:32:41.754Z,35.60
2019-01-19T17:36:30.766Z,35.70
2019-01-19T17:39:42.195Z,36.60
2019-01-19T17:43:14.317Z,36.00
2019-01-19T17:47:01.508Z,36.20
2019-01-19T17:50:31.893Z,36.40
2019-01-19T17:54:13.317Z,36.50
2019-01-19T17:57:33.090Z,36.60
2019-01-19T18:00:36.209Z,36.70
2019-01-19T18:03:49.364Z,36.90
2019-01-19T18:07:01.123Z,37.00
2019-01-19T18:10:24.740Z,37.10
2019-01-19T18:13:34.435Z,37.10
2019-01-19T18:17:20.634Z,37.80
2019-01-19T18:21:03.845Z,37.20
2019-01-19T18:24:33.551Z,37.30
2019-01-19T18:27:31.349Z,37.30
2019-01-19T18:31:08.229Z,37.60
2019-01-19T18:34:48.459Z,37.80
2019-01-19T18:38:35.669Z,37.70
2019-01-19T18:42:30.936Z,37.90
2019-01-19T18:46:08.015Z,37.80
2019-01-19T18:49:27.397Z,37.80
2019-01-19T18:52:31.712Z,38.00
2019-01-19T18:55:45.536Z,38.00
2019-01-19T18:59:17.074Z,38.30
2019-01-19T19:02:44.045Z,38.30
2019-01-19T19:06:20.193Z,38.40
2019-01-19T19:09:38.379Z,38.80
2019-01-19T19:13:00.116Z,39.00
2019-01-19T19:16:51.227Z,38.50
2019-01-19T19:20:03.028Z,38.50
2019-01-19T19:23:09.962Z,38.60
2019-01-19T19:26:43.695Z,38.70
2019-01-19T19:29:56.770Z,38.70
2019-01-19T19:33:20.304Z,38.80
2019-01-19T19:36:52.081Z,38.90
2019-01-19T19:40:15.555Z,38.80
2019-01-19T19:43:24.030Z,38.90
2019-01-19T19:46:28.575Z,39.00
2019-01-19T19:49:49.591Z,39.00
2019-01-19T19:52:27.779Z,39.00
2019-01-19T19:54:54.032Z,39.00
2019-01-19T19:57:26.226Z,39.10
2019-01-19T19:59:58.175Z,39.20
2019-01-19T20:02:33.153Z,39.40
2019-01-19T20:05:06.919Z,39.40
2019-01-19T20:07:42.818Z,39.40
2019-01-19T20:10:17.274Z,39.40
2019-01-19T20:12:48.719Z,39.50
2019-01-19T20:15:24.195Z,39.60
2019-01-19T20:17:56.263Z,39.60
2019-01-19T20:20:28.143Z,39.60
2019-01-19T20:23:00.252Z,39.60
2019-01-19T20:25:35.158Z,39.70
2019-01-19T20:28:08.712Z,39.70
2019-01-19T20:30:44.814Z,39.70
2019-01-19T20:33:18.887Z,39.90
2019-01-19T20:35:50.759Z,39.80
2019-01-19T20:38:22.791Z,39.80
2019-01-19T20:40:54.950Z,39.80
2019-01-19T20:43:26.935Z,39.90
2019-01-19T20:45:58.987Z,40.00
2019-01-19T20:48:31.333Z,40.00
2019-01-19T20:51:03.326Z,39.90
2019-01-19T20:53:35.852Z,40.00
2019-01-19T20:56:08.522Z,40.10
2019-01-19T20:58:40.404Z,40.10
2019-01-19T21:01:12.714Z,40.00
2019-01-19T21:03:44.791Z,40.20
2019-01-19T21:06:18.031Z,40.20
2019-01-19T21:08:50.289Z,40.30
2019-01-19T21:11:22.596Z,40.30
2019-01-19T21:13:54.874Z,40.30
2019-01-19T21:16:26.807Z,40.40
2019-01-19T21:18:59.049Z,40.40
2019-01-19T21:21:31.292Z,40.30
2019-01-19T21:24:03.516Z,40.40
2019-01-19T21:26:35.761Z,40.50
2019-01-19T21:29:07.724Z,40.50
2019-01-19T21:31:39.788Z,40.50
2019-01-19T21:34:12.045Z,40.60
2019-01-19T21:36:43.911Z,40.50
2019-01-19T21:39:15.796Z,40.50
2019-01-19T21:41:48.516Z,40.50
2019-01-19T21:44:20.546Z,40.50
2019-01-19T21:46:52.581Z,40.60
2019-01-19T21:49:24.563Z,40.60
2019-01-19T21:51:56.573Z,40.60
2019-01-19T21:54:29.508Z,40.60
2019-01-19T21:57:19.675Z,40.70
2019-01-19T21:59:51.782Z,40.70
2019-01-19T22:02:23.703Z,40.70
2019-01-19T22:04:55.634Z,40.70
2019-01-19T22:07:27.659Z,40.70
2019-01-19T22:09:59.770Z,40.70
2019-01-19T22:12:31.685Z,40.70
2019-01-19T22:15:04.442Z,40.80
2019-01-19T22:17:39.836Z,40.70
2019-01-19T22:20:12.715Z,40.70
2019-01-19T22:22:46.272Z,40.70
2019-01-19T22:25:18.574Z,40.70
2019-01-19T22:27:51.062Z,40.80
2019-01-19T22:30:25.355Z,40.80
2019-01-19T22:32:57.637Z,40.80
2019-01-19T22:35:30.601Z,40.70
2019-01-19T22:38:02.868Z,40.90
2019-01-19T22:40:35.394Z,40.90
2019-01-19T22:43:10.940Z,40.80
2019-01-19T22:45:43.324Z,40.80
2019-01-19T22:48:15.345Z,40.80
2019-01-19T22:50:47.454Z,40.90
2019-01-19T22:53:19.865Z,40.80
2019-01-19T22:55:51.894Z,40.90
2019-01-19T22:58:23.819Z,40.80
2019-01-19T23:01:31.485Z,40.80
2019-01-19T23:04:04.958Z,40.70
2019-01-19T23:06:37.122Z,40.60
2019-01-19T23:09:12.246Z,40.60
2019-01-19T23:11:44.704Z,40.50
2019-01-19T23:14:17.303Z,40.60
2019-01-19T23:16:49.275Z,40.50
2019-01-19T23:19:21.231Z,40.50
2019-01-19T23:21:53.300Z,40.50
2019-01-19T23:24:25.213Z,40.50
2019-01-19T23:27:04.059Z,40.60
2019-01-19T23:29:35.969Z,40.60
2019-01-19T23:32:07.847Z,40.40
2019-01-19T23:34:39.784Z,40.40
2019-01-19T23:37:11.846Z,40.50
2019-01-19T23:39:43.734Z,40.50
2019-01-19T23:42:15.567Z,40.50
2019-01-19T23:44:47.407Z,40.50
2019-01-19T23:47:19.401Z,40.40
2019-01-19T23:49:51.227Z,40.50
2019-01-19T23:52:23.154Z,40.50
2019-01-19T23:54:55.016Z,40.50
2019-01-19T23:57:27.046Z,40.60
2019-01-19T23:59:59.136Z,40.70
